createdAt,value
2022-12-11T00:01:32.640Z,-2.05
2022-12-11T00:04:38.083Z,-2.02
2022-12-11T00:07:44.429Z,-2.04
2022-12-11T00:10:52.885Z,-1.98
2022-12-11T00:13:59.170Z,-1.98
2022-12-11T00:17:07.591Z,-1.96
2022-12-11T00:20:14.953Z,-1.86
2022-12-11T00:23:20.755Z,-1.89
2022-12-11T00:26:27.281Z,-1.89
2022-12-11T00:29:32.709Z,-1.88
2022-12-11T00:32:42.176Z,-1.87
2022-12-11T00:35:50.464Z,-1.95
2022-12-11T00:38:58.118Z,-1.91
2022-12-11T00:42:03.645Z,-1.86
2022-12-11T00:45:11.305Z,-1.96
2022-12-11T00:48:20.684Z,-1.92
2022-12-11T00:51:27.592Z,-1.93
2022-12-11T00:54:34.376Z,-2.09
2022-12-11T00:57:40.698Z,-2.09
2022-12-11T01:00:48.477Z,-2.05
2022-12-11T01:04:28.585Z,-2.10
2022-12-11T01:07:34.883Z,-2.11
2022-12-11T01:10:40.573Z,-2.06
2022-12-11T01:13:47.176Z,-2.10
2022-12-11T01:16:52.843Z,-2.11
2022-12-11T01:20:01.900Z,-2.07
2022-12-11T01:23:07.312Z,-2.13
2022-12-11T01:26:17.882Z,-2.24
2022-12-11T01:29:23.288Z,-2.41
2022-12-11T01:32:31.075Z,-2.32
2022-12-11T01:35:39.530Z,-2.30
2022-12-11T01:38:47.723Z,-2.34
2022-12-11T01:41:53.305Z,-2.37
2022-12-11T01:45:45.143Z,-2.37
2022-12-11T01:48:51.043Z,-2.28
2022-12-11T01:52:09.460Z,-2.30
2022-12-11T01:55:15.594Z,-2.32
2022-12-11T01:58:25.352Z,-2.30
2022-12-11T02:01:40.136Z,-2.24
2022-12-11T02:04:50.203Z,-2.43
2022-12-11T02:08:04.018Z,-2.41
2022-12-11T02:11:23.347Z,-2.46
2022-12-11T02:14:42.436Z,-2.47
2022-12-11T02:18:00.784Z,-2.50
2022-12-11T02:21:18.688Z,-2.55
2022-12-11T02:24:53.660Z,-2.47
2022-12-11T02:28:19.331Z,-2.54
2022-12-11T02:31:37.277Z,-2.67
2022-12-11T02:34:51.225Z,-2.63
2022-12-11T02:38:05.929Z,-2.64
2022-12-11T02:41:15.614Z,-2.61
2022-12-11T02:44:33.508Z,-2.63
2022-12-11T02:47:42.584Z,-2.67
2022-12-11T02:50:56.657Z,-2.67
2022-12-11T02:54:03.981Z,-2.63
2022-12-11T02:57:19.865Z,-2.70
2022-12-11T03:00:28.052Z,-2.62
2022-12-11T03:03:34.521Z,-2.63
2022-12-11T03:06:50.239Z,-2.70
2022-12-11T03:09:57.400Z,-2.67
2022-12-11T03:13:05.744Z,-2.69
2022-12-11T03:16:29.778Z,-2.79
2022-12-11T03:19:43.361Z,-3.17
2022-12-11T03:22:57.216Z,-2.82
2022-12-11T03:26:08.415Z,-2.99
2022-12-11T03:29:24.215Z,-2.77
2022-12-11T03:32:43.613Z,-2.79
2022-12-11T03:35:59.094Z,-2.77
2022-12-11T03:39:12.535Z,-2.72
2022-12-11T03:42:24.793Z,-2.66
2022-12-11T03:45:33.762Z,-2.73
2022-12-11T03:48:49.511Z,-2.84
2022-12-11T03:52:01.148Z,-2.79
2022-12-11T03:55:11.172Z,-2.74
2022-12-11T03:58:16.772Z,-2.76
2022-12-11T04:01:23.555Z,-2.75
2022-12-11T04:04:32.201Z,-2.75
2022-12-11T04:07:39.046Z,-2.84
2022-12-11T04:10:45.657Z,-2.84
2022-12-11T04:14:12.673Z,-3.05
2022-12-11T04:17:35.721Z,-3.16
2022-12-11T04:20:59.557Z,-3.06
2022-12-11T04:24:19.957Z,-3.02
2022-12-11T04:27:42.646Z,-2.95
2022-12-11T04:30:52.798Z,-2.88
2022-12-11T04:33:59.155Z,-2.83
2022-12-11T04:37:07.288Z,-2.87
2022-12-11T04:40:17.924Z,-3.00
2022-12-11T04:43:23.258Z,-3.03
2022-12-11T04:46:29.543Z,-3.04
2022-12-11T04:49:35.009Z,-2.99
2022-12-11T04:52:44.370Z,-2.97
2022-12-11T04:55:49.804Z,-2.97
2022-12-11T04:58:55.983Z,-2.93
2022-12-11T05:02:01.405Z,-3.05
2022-12-11T05:05:13.044Z,-2.98
2022-12-11T05:08:22.369Z,-2.95
2022-12-11T05:11:28.656Z,-3.03
2022-12-11T05:14:34.056Z,-3.10
2022-12-11T05:17:40.681Z,-3.06
2022-12-11T05:20:46.493Z,-3.21
2022-12-11T05:23:55.534Z,-3.22
2022-12-11T05:27:00.904Z,-3.26
2022-12-11T05:30:08.801Z,-3.30
2022-12-11T05:33:14.221Z,-3.26
2022-12-11T05:36:25.025Z,-3.20
2022-12-11T05:39:33.359Z,-3.20
2022-12-11T05:42:39.641Z,-3.22
2022-12-11T05:45:45.014Z,-3.20
2022-12-11T05:48:55.236Z,-3.14
2022-12-11T05:52:00.623Z,-3.13
2022-12-11T05:55:11.393Z,-3.09
2022-12-11T05:58:17.082Z,-3.10
2022-12-11T06:01:27.139Z,-3.16
2022-12-11T06:04:32.951Z,-3.11
2022-12-11T06:07:39.502Z,-3.14
2022-12-11T06:10:53.278Z,-3.17
2022-12-11T06:14:00.341Z,-3.23
2022-12-11T06:17:05.685Z,-3.24
2022-12-11T06:20:13.076Z,-3.21
2022-12-11T06:23:19.190Z,-3.24
2022-12-11T06:26:29.935Z,-3.28
2022-12-11T06:29:35.918Z,-3.34
2022-12-11T06:32:42.261Z,-3.37
2022-12-11T06:35:47.658Z,-3.39
2022-12-11T06:38:56.484Z,-3.36
2022-12-11T06:42:04.623Z,-3.40
2022-12-11T06:45:13.833Z,-3.39
2022-12-11T06:48:19.591Z,-3.48
2022-12-11T06:51:26.862Z,-3.36
2022-12-11T06:54:32.227Z,-3.41
2022-12-11T06:57:41.167Z,-3.41
2022-12-11T07:00:49.219Z,-3.42
2022-12-11T07:03:57.916Z,-3.48
2022-12-11T07:07:04.398Z,-3.46
2022-12-11T07:10:12.574Z,-3.57
2022-12-11T07:13:20.705Z,-3.56
2022-12-11T07:16:27.067Z,-3.65
2022-12-11T07:19:32.433Z,-3.58
2022-12-11T07:22:44.643Z,-3.50
2022-12-11T07:25:54.765Z,-3.45
2022-12-11T07:29:04.937Z,-3.49
2022-12-11T07:32:10.900Z,-3.50
2022-12-11T07:35:17.296Z,-3.48
2022-12-11T07:38:22.627Z,-3.41
2022-12-11T07:41:29.045Z,-3.44
2022-12-11T07:44:37.400Z,-3.47
2022-12-11T07:47:46.978Z,-3.53
2022-12-11T07:50:53.342Z,-3.56
2022-12-11T07:54:03.304Z,-3.51
2022-12-11T07:57:14.220Z,-3.60
2022-12-11T08:00:23.776Z,-3.61
2022-12-11T08:03:29.201Z,-3.58
2022-12-11T08:06:38.720Z,-3.66
2022-12-11T08:09:44.329Z,-3.73
2022-12-11T08:12:50.604Z,-3.75
2022-12-11T08:15:58.737Z,-3.72
2022-12-11T08:19:04.950Z,-3.71
2022-12-11T08:22:15.721Z,-3.71
2022-12-11T08:25:30.784Z,-3.58
2022-12-11T08:28:36.727Z,-3.58
2022-12-11T08:31:46.141Z,-3.52
2022-12-11T08:34:53.816Z,-3.50
2022-12-11T08:38:00.431Z,-3.44
2022-12-11T08:41:12.836Z,-3.41
2022-12-11T08:44:20.012Z,-3.29
2022-12-11T08:47:30.203Z,-3.28
2022-12-11T08:50:36.543Z,-3.28
2022-12-11T08:53:42.650Z,-3.28
2022-12-11T08:56:52.302Z,-3.27
2022-12-11T09:00:00.343Z,-3.35
2022-12-11T09:03:12.772Z,-3.28
2022-12-11T09:06:22.851Z,-3.53
2022-12-11T09:09:29.466Z,-3.49
2022-12-11T09:12:36.671Z,-3.65
2022-12-11T09:15:44.670Z,-3.65
2022-12-11T09:18:57.452Z,-3.56
2022-12-11T09:22:03.692Z,-3.50
2022-12-11T09:25:10.767Z,-3.49
2022-12-11T09:28:17.666Z,-3.53
2022-12-11T09:31:26.979Z,-3.46
2022-12-11T09:34:36.476Z,-3.36
2022-12-11T09:37:41.865Z,-3.40
2022-12-11T09:40:48.081Z,-3.37
2022-12-11T09:44:05.489Z,-3.34
2022-12-11T09:47:35.005Z,-3.38
2022-12-11T09:50:44.348Z,-3.35
2022-12-11T09:53:51.823Z,-3.47
2022-12-11T09:57:15.365Z,-3.54
2022-12-11T10:00:33.595Z,-3.54
2022-12-11T10:04:08.993Z,-3.53
2022-12-11T10:07:30.699Z,-3.47
2022-12-11T10:10:47.417Z,-3.59
2022-12-11T10:14:11.302Z,-3.54
2022-12-11T10:17:29.056Z,-3.54
2022-12-11T10:20:40.485Z,-3.65
2022-12-11T10:23:57.316Z,-3.65
2022-12-11T10:27:21.616Z,-3.54
2022-12-11T10:30:34.469Z,-3.52
2022-12-11T10:34:03.523Z,-3.49
2022-12-11T10:37:09.108Z,-3.44
2022-12-11T10:40:25.919Z,-3.40
2022-12-11T10:43:42.493Z,-3.41
2022-12-11T10:46:52.623Z,-3.47
2022-12-11T10:50:02.454Z,-3.68
2022-12-11T10:53:09.121Z,-3.65
2022-12-11T10:56:17.630Z,-3.63
2022-12-11T10:59:35.797Z,-3.56
2022-12-11T11:02:44.667Z,-3.60
2022-12-11T11:05:51.383Z,-3.63
2022-12-11T11:09:00.420Z,-3.89
2022-12-11T11:12:24.543Z,-3.73
2022-12-11T11:15:33.506Z,-3.69
2022-12-11T11:18:41.890Z,-3.70
2022-12-11T11:21:55.484Z,-3.66
2022-12-11T11:25:05.084Z,-3.68
2022-12-11T11:28:26.961Z,-3.65
2022-12-11T11:31:38.879Z,-3.67
2022-12-11T11:34:44.832Z,-3.64
2022-12-11T11:38:07.938Z,-3.79
2022-12-11T11:41:22.905Z,-3.86
2022-12-11T11:44:41.059Z,-3.92
2022-12-11T11:48:00.072Z,-4.04
2022-12-11T11:51:19.268Z,-4.35
2022-12-11T11:54:37.620Z,-3.98
2022-12-11T11:57:56.534Z,-3.97
2022-12-11T12:01:04.728Z,-4.01
2022-12-11T12:04:12.242Z,-4.06
2022-12-11T12:07:40.325Z,-4.13
2022-12-11T12:11:01.228Z,-4.15
2022-12-11T12:14:50.556Z,-4.07
2022-12-11T12:17:57.768Z,-3.97
2022-12-11T12:21:22.111Z,-3.96
2022-12-11T12:24:46.922Z,-4.18
2022-12-11T12:28:08.060Z,-4.07
2022-12-11T12:31:47.282Z,-3.93
2022-12-11T12:35:17.127Z,-3.97
2022-12-11T12:38:38.055Z,-3.93
2022-12-11T12:42:07.265Z,-3.94
2022-12-11T12:45:31.636Z,-3.95
2022-12-11T12:48:37.645Z,-3.97
2022-12-11T12:51:48.766Z,-3.94
2022-12-11T12:55:18.967Z,-3.93
2022-12-11T12:58:32.056Z,-4.03
2022-12-11T13:01:37.564Z,-4.06
2022-12-11T13:04:55.979Z,-3.93
2022-12-11T13:08:08.849Z,-4.00
2022-12-11T13:11:23.834Z,-3.96
2022-12-11T13:14:33.952Z,-3.95
2022-12-11T13:17:42.260Z,-3.89
2022-12-11T13:20:53.342Z,-3.85
2022-12-11T13:24:19.811Z,-3.87
2022-12-11T13:27:29.484Z,-4.01
2022-12-11T13:30:36.532Z,-3.99
2022-12-11T13:33:49.507Z,-3.92
2022-12-11T13:37:00.845Z,-3.82
2022-12-11T13:40:20.337Z,-3.74
2022-12-11T13:43:32.228Z,-3.69
2022-12-11T13:46:42.813Z,-3.65
2022-12-11T13:50:03.445Z,-3.64
2022-12-11T13:53:08.861Z,-3.68
2022-12-11T13:56:23.147Z,-3.70
2022-12-11T13:59:33.288Z,-3.67
2022-12-11T14:02:44.275Z,-3.78
2022-12-11T14:05:49.829Z,-3.78
2022-12-11T14:09:01.869Z,-3.86
2022-12-11T14:12:10.642Z,-3.90
2022-12-11T14:15:19.713Z,-3.83
2022-12-11T14:18:30.548Z,-3.84
2022-12-11T14:21:38.032Z,-4.02
2022-12-11T14:24:53.647Z,-4.23
2022-12-11T14:28:04.727Z,-4.18
2022-12-11T14:31:10.898Z,-4.34
2022-12-11T14:34:24.063Z,-4.23
2022-12-11T14:37:31.344Z,-4.20
2022-12-11T14:40:46.728Z,-4.27
2022-12-11T14:44:02.581Z,-4.43
2022-12-11T14:47:20.021Z,-4.39
2022-12-11T14:50:34.267Z,-4.39
2022-12-11T14:53:50.207Z,-4.65
2022-12-11T14:56:58.108Z,-4.56
2022-12-11T15:00:09.925Z,-4.66
2022-12-11T15:03:27.751Z,-4.74
2022-12-11T15:06:37.460Z,-4.66
2022-12-11T15:09:43.772Z,-4.57
2022-12-11T15:12:50.196Z,-4.54
2022-12-11T15:16:00.471Z,-4.59
2022-12-11T15:19:08.796Z,-4.64
2022-12-11T15:22:20.589Z,-4.84
2022-12-11T15:25:32.997Z,-4.73
2022-12-11T15:28:42.138Z,-4.83
2022-12-11T15:32:02.761Z,-4.78
2022-12-11T15:35:26.144Z,-4.78
2022-12-11T15:38:39.763Z,-4.79
2022-12-11T15:41:46.512Z,-4.70
2022-12-11T15:44:53.132Z,-4.69
2022-12-11T15:48:01.341Z,-4.70
2022-12-11T15:51:08.709Z,-5.18
2022-12-11T15:54:14.395Z,-4.80
2022-12-11T15:57:26.001Z,-4.82
2022-12-11T16:00:31.944Z,-4.70
2022-12-11T16:03:41.280Z,-4.65
2022-12-11T16:06:47.171Z,-4.61
2022-12-11T16:09:53.803Z,-4.59
2022-12-11T16:12:59.931Z,-4.60
2022-12-11T16:16:06.571Z,-4.60
2022-12-11T16:19:15.530Z,-4.53
2022-12-11T16:22:21.728Z,-4.55
2022-12-11T16:25:27.829Z,-4.73
2022-12-11T16:28:34.098Z,-4.67
2022-12-11T16:31:39.501Z,-4.63
2022-12-11T16:34:48.679Z,-4.59
2022-12-11T16:37:55.619Z,-4.59
2022-12-11T16:41:06.104Z,-4.73
2022-12-11T16:44:11.550Z,-4.80
2022-12-11T16:47:18.121Z,-4.77
2022-12-11T16:50:26.694Z,-4.84
2022-12-11T16:53:33.101Z,-4.89
2022-12-11T16:56:38.899Z,-4.73
2022-12-11T16:59:50.906Z,-4.85
2022-12-11T17:02:57.450Z,-4.80
2022-12-11T17:06:10.561Z,-4.76
2022-12-11T17:09:16.524Z,-4.71
2022-12-11T17:12:27.926Z,-4.66
2022-12-11T17:15:33.352Z,-4.69
2022-12-11T17:18:40.397Z,-4.74
2022-12-11T17:21:51.788Z,-4.72
2022-12-11T17:24:58.374Z,-4.75
2022-12-11T17:28:03.796Z,-4.70
2022-12-11T17:31:13.037Z,-4.83
2022-12-11T17:34:18.963Z,-4.86
2022-12-11T17:37:27.974Z,-4.79
2022-12-11T17:40:33.424Z,-4.94
2022-12-11T17:43:39.795Z,-4.78
2022-12-11T17:46:45.223Z,-4.83
2022-12-11T17:49:51.592Z,-4.93
2022-12-11T17:53:00.087Z,-4.89
2022-12-11T17:56:10.915Z,-5.32
2022-12-11T17:59:16.505Z,-5.32
2022-12-11T18:02:22.993Z,-5.09
2022-12-11T18:05:28.960Z,-5.18
2022-12-11T18:08:39.043Z,-5.34
2022-12-11T18:11:44.841Z,-5.47
2022-12-11T18:14:51.189Z,-5.34
2022-12-11T18:18:00.005Z,-5.26
2022-12-11T18:21:09.811Z,-5.26
2022-12-11T18:24:21.160Z,-5.32
2022-12-11T18:27:28.106Z,-5.41
2022-12-11T18:30:33.565Z,-5.27
2022-12-11T18:33:41.928Z,-5.41
2022-12-11T18:36:47.278Z,-5.31
2022-12-11T18:39:56.677Z,-5.35
2022-12-11T18:43:02.090Z,-5.37
2022-12-11T18:46:10.749Z,-5.37
2022-12-11T18:49:16.214Z,-5.42
2022-12-11T18:52:22.666Z,-5.42
2022-12-11T18:55:30.995Z,-5.33
2022-12-11T18:58:37.813Z,-5.34
2022-12-11T19:01:43.426Z,-5.29
2022-12-11T19:04:49.756Z,-5.37
2022-12-11T19:07:55.192Z,-5.41
2022-12-11T19:11:04.211Z,-5.35
2022-12-11T19:14:11.480Z,-5.36
2022-12-11T19:17:18.003Z,-5.32
2022-12-11T19:20:47.883Z,-5.38
2022-12-11T19:23:50.097Z,-5.18
2022-12-11T19:26:58.376Z,-5.16
2022-12-11T19:30:04.639Z,-5.30
2022-12-11T19:33:10.298Z,-5.27
2022-12-11T19:36:20.188Z,-5.24
2022-12-11T19:39:25.889Z,-5.27
2022-12-11T19:42:34.926Z,-5.12
2022-12-11T19:45:41.683Z,-5.16
2022-12-11T19:48:51.792Z,-5.10
2022-12-11T19:51:57.551Z,-5.22
2022-12-11T19:55:07.467Z,-5.29
2022-12-11T19:58:15.819Z,-5.22
2022-12-11T20:01:26.116Z,-5.42
2022-12-11T20:04:31.585Z,-5.45
2022-12-11T20:07:38.860Z,-5.50
2022-12-11T20:10:44.386Z,-5.43
2022-12-11T20:13:55.697Z,-5.49
2022-12-11T20:17:11.873Z,-5.39
2022-12-11T20:20:19.931Z,-5.44
2022-12-11T20:23:25.360Z,-5.30
2022-12-11T20:26:32.724Z,-5.53
2022-12-11T20:29:41.269Z,-5.44
2022-12-11T20:32:48.282Z,-5.55
2022-12-11T20:35:53.914Z,-5.58
2022-12-11T20:39:04.059Z,-5.59
2022-12-11T20:42:12.949Z,-5.55
2022-12-11T20:45:22.379Z,-5.58
2022-12-11T20:48:27.748Z,-5.69
2022-12-11T20:51:34.100Z,-5.68
2022-12-11T20:54:39.551Z,-5.65
2022-12-11T20:57:46.602Z,-5.71
2022-12-11T21:00:55.242Z,-5.59
2022-12-11T21:04:03.667Z,-5.59
2022-12-11T21:07:09.724Z,-5.71
2022-12-11T21:10:16.719Z,-5.53
2022-12-11T21:13:22.472Z,-5.54
2022-12-11T21:16:31.982Z,-5.47
2022-12-11T21:19:37.443Z,-5.52
2022-12-11T21:22:43.695Z,-5.63
2022-12-11T21:25:49.052Z,-5.64
2022-12-11T21:28:55.757Z,-5.60
2022-12-11T21:32:04.823Z,-5.58
2022-12-11T21:35:12.833Z,-5.37
2022-12-11T21:38:18.419Z,-5.38
2022-12-11T21:41:27.395Z,-5.48
2022-12-11T21:48:03.562Z,-5.33
2022-12-11T21:51:15.753Z,-5.33
2022-12-11T21:54:22.740Z,-5.37
2022-12-11T21:57:29.067Z,-5.26
2022-12-11T22:00:35.352Z,-5.18
2022-12-11T22:03:43.537Z,-5.26
2022-12-11T22:06:50.239Z,-5.18
2022-12-11T22:09:55.750Z,-5.16
2022-12-11T22:13:02.017Z,-5.17
2022-12-11T22:16:07.798Z,-5.17
2022-12-11T22:19:17.574Z,-5.11
2022-12-11T22:22:23.641Z,-5.01
2022-12-11T22:25:29.917Z,-4.98
2022-12-11T22:28:35.387Z,-4.91
2022-12-11T22:31:41.773Z,-4.91
2022-12-11T22:34:49.950Z,-4.97
2022-12-11T22:37:56.473Z,-5.09
2022-12-11T22:41:03.197Z,-5.10
2022-12-11T22:44:09.473Z,-5.06
2022-12-11T22:47:15.011Z,-4.95
2022-12-11T22:50:24.444Z,-4.99
2022-12-11T22:53:29.816Z,-4.89
2022-12-11T22:56:36.540Z,-4.90
2022-12-11T22:59:50.468Z,-4.83
2022-12-11T23:02:56.973Z,-4.75
2022-12-11T23:06:09.748Z,-4.60
2022-12-11T23:09:16.241Z,-4.51
2022-12-11T23:12:21.684Z,-4.50
2022-12-11T23:15:27.967Z,-4.49
2022-12-11T23:18:33.308Z,-4.56
2022-12-11T23:21:42.563Z,-4.65
2022-12-11T23:24:48.007Z,-4.60
2022-12-11T23:27:54.331Z,-4.55
2022-12-11T23:30:59.863Z,-4.60
2022-12-11T23:34:06.533Z,-4.73
2022-12-11T23:37:14.702Z,-4.74
2022-12-11T23:40:21.331Z,-4.78
2022-12-11T23:43:26.871Z,-4.86
2022-12-11T23:46:34.659Z,-4.70
2022-12-11T23:49:40.380Z,-4.74
2022-12-11T23:52:49.617Z,-4.92
2022-12-11T23:55:55.347Z,-4.96
2022-12-11T23:59:01.905Z,-4.76
